sensor_id;sensor_type;location;lat;lon;timestamp;temperature;humidity
29093;DHT22;16167;48.768;14.984;2023-05-10T00:00:03;8.10;1.00
29093;DHT22;16167;48.768;14.984;2023-05-10T00:02:31;8.20;1.00
29093;DHT22;16167;48.768;14.984;2023-05-10T00:04:59;8.10;1.00
29093;DHT22;16167;48.768;14.984;2023-05-10T00:07:28;8.10;1.00
29093;DHT22;16167;48.768;14.984;2023-05-10T00:09:56;8.10;1.00
29093;DHT22;16167;48.768;14.984;2023-05-10T00:12:24;8.10;1.00
29093;DHT22;16167;48.768;14.984;2023-05-10T00:14:52;8.10;1.00
29093;DHT22;16167;48.768;14.984;2023-05-10T00:17:20;8.10;1.00
29093;DHT22;16167;48.768;14.984;2023-05-10T00:19:48;8.10;1.00
29093;DHT22;16167;48.768;14.984;2023-05-10T00:22:15;8.00;1.00
29093;DHT22;16167;48.768;14.984;2023-05-10T00:24:45;8.00;1.00
29093;DHT22;16167;48.768;14.984;2023-05-10T00:27:13;8.00;1.00
29093;DHT22;16167;48.768;14.984;2023-05-10T00:29:41;8.00;1.00
29093;DHT22;16167;48.768;14.984;2023-05-10T00:32:08;8.00;1.00
29093;DHT22;16167;48.768;14.984;2023-05-10T00:34:36;8.00;1.00
29093;DHT22;16167;48.768;14.984;2023-05-10T00:37:04;8.00;1.00
29093;DHT22;16167;48.768;14.984;2023-05-10T00:39:32;7.90;1.00
29093;DHT22;16167;48.768;14.984;2023-05-10T00:42:01;7.90;1.00
29093;DHT22;16167;48.768;14.984;2023-05-10T00:44:31;7.90;1.00
29093;DHT22;16167;48.768;14.984;2023-05-10T00:46:58;7.80;1.00
29093;DHT22;16167;48.768;14.984;2023-05-10T00:49:26;7.80;1.00
29093;DHT22;16167;48.768;14.984;2023-05-10T00:51:55;7.80;1.00
29093;DHT22;16167;48.768;14.984;2023-05-10T00:54:23;7.80;1.00
29093;DHT22;16167;48.768;14.984;2023-05-10T00:56:51;7.80;1.00
29093;DHT22;16167;48.768;14.984;2023-05-10T00:59:20;7.80;1.00
29093;DHT22;16167;48.768;14.984;2023-05-10T01:01:48;7.80;1.00
29093;DHT22;16167;48.768;14.984;2023-05-10T01:04:16;7.80;1.00
29093;DHT22;16167;48.768;14.984;2023-05-10T01:06:45;7.70;1.00
29093;DHT22;16167;48.768;14.984;2023-05-10T01:09:13;7.70;1.00
29093;DHT22;16167;48.768;14.984;2023-05-10T01:11:42;7.70;1.00
29093;DHT22;16167;48.768;14.984;2023-05-10T01:14:10;7.60;1.00
29093;DHT22;16167;48.768;14.984;2023-05-10T01:16:40;7.60;1.00
29093;DHT22;16167;48.768;14.984;2023-05-10T01:19:10;7.60;1.00
29093;DHT22;16167;48.768;14.984;2023-05-10T01:21:43;7.60;1.00
29093;DHT22;16167;48.768;14.984;2023-05-10T01:24:21;7.50;1.00
29093;DHT22;16167;48.768;14.984;2023-05-10T01:27:02;7.50;1.00
29093;DHT22;16167;48.768;14.984;2023-05-10T01:32:35;7.40;1.00
29093;DHT22;16167;48.768;14.984;2023-05-10T01:35:05;7.30;1.00
29093;DHT22;16167;48.768;14.984;2023-05-10T01:37:37;7.30;1.00
29093;DHT22;16167;48.768;14.984;2023-05-10T01:40:09;7.30;1.00
29093;DHT22;16167;48.768;14.984;2023-05-10T01:42:42;7.30;1.00
29093;DHT22;16167;48.768;14.984;2023-05-10T01:45:14;7.30;1.00
29093;DHT22;16167;48.768;14.984;2023-05-10T01:47:48;7.30;1.00
29093;DHT22;16167;48.768;14.984;2023-05-10T01:50:18;7.30;1.00
29093;DHT22;16167;48.768;14.984;2023-05-10T01:52:47;7.20;2.30
29093;DHT22;16167;48.768;14.984;2023-05-10T01:55:18;7.20;1.00
29093;DHT22;16167;48.768;14.984;2023-05-10T01:57:46;7.20;1.00
29093;DHT22;16167;48.768;14.984;2023-05-10T02:00:15;7.20;1.00
29093;DHT22;16167;48.768;14.984;2023-05-10T02:02:44;7.10;1.00
29093;DHT22;16167;48.768;14.984;2023-05-10T02:05:14;7.10;1.00
29093;DHT22;16167;48.768;14.984;2023-05-10T02:07:42;7.10;3.60
29093;DHT22;16167;48.768;14.984;2023-05-10T02:10:11;7.00;4.80
29093;DHT22;16167;48.768;14.984;2023-05-10T02:12:41;7.00;5.30
29093;DHT22;16167;48.768;14.984;2023-05-10T02:15:10;7.00;2.70
29093;DHT22;16167;48.768;14.984;2023-05-10T02:17:39;7.00;7.10
29093;DHT22;16167;48.768;14.984;2023-05-10T02:20:08;7.00;1.80
29093;DHT22;16167;48.768;14.984;2023-05-10T02:22:38;7.00;4.40
29093;DHT22;16167;48.768;14.984;2023-05-10T02:25:06;6.90;1.00
29093;DHT22;16167;48.768;14.984;2023-05-10T02:27:36;6.90;8.20
29093;DHT22;16167;48.768;14.984;2023-05-10T02:30:05;6.90;4.40
29093;DHT22;16167;48.768;14.984;2023-05-10T02:32:33;6.80;7.90
29093;DHT22;16167;48.768;14.984;2023-05-10T02:35:02;6.80;10.20
29093;DHT22;16167;48.768;14.984;2023-05-10T02:37:30;6.70;5.60
29093;DHT22;16167;48.768;14.984;2023-05-10T02:40:00;6.70;6.90
29093;DHT22;16167;48.768;14.984;2023-05-10T02:42:31;6.70;6.90
29093;DHT22;16167;48.768;14.984;2023-05-10T02:45:00;6.70;10.60
29093;DHT22;16167;48.768;14.984;2023-05-10T02:47:29;6.70;7.90
29093;DHT22;16167;48.768;14.984;2023-05-10T02:49:59;6.60;3.20
29093;DHT22;16167;48.768;14.984;2023-05-10T02:52:28;6.60;4.70
29093;DHT22;16167;48.768;14.984;2023-05-10T02:54:58;6.60;7.30
29093;DHT22;16167;48.768;14.984;2023-05-10T02:57:31;6.50;3.40
29093;DHT22;16167;48.768;14.984;2023-05-10T02:59:59;6.40;5.40
29093;DHT22;16167;48.768;14.984;2023-05-10T03:02:27;6.30;5.40
29093;DHT22;16167;48.768;14.984;2023-05-10T03:04:57;6.30;7.80
29093;DHT22;16167;48.768;14.984;2023-05-10T03:07:25;6.30;6.60
29093;DHT22;16167;48.768;14.984;2023-05-10T03:09:53;6.20;20.70
29093;DHT22;16167;48.768;14.984;2023-05-10T03:12:23;6.20;20.30
29093;DHT22;16167;48.768;14.984;2023-05-10T03:14:57;6.10;9.10
29093;DHT22;16167;48.768;14.984;2023-05-10T03:17:29;6.10;14.20
29093;DHT22;16167;48.768;14.984;2023-05-10T03:19:58;6.00;18.00
29093;DHT22;16167;48.768;14.984;2023-05-10T03:22:31;6.00;15.80
29093;DHT22;16167;48.768;14.984;2023-05-10T03:24:59;6.00;16.50
29093;DHT22;16167;48.768;14.984;2023-05-10T03:27:28;5.90;12.50
29093;DHT22;16167;48.768;14.984;2023-05-10T03:29:58;5.80;15.30
29093;DHT22;16167;48.768;14.984;2023-05-10T03:32:28;5.80;17.30
29093;DHT22;16167;48.768;14.984;2023-05-10T03:34:56;5.80;14.40
29093;DHT22;16167;48.768;14.984;2023-05-10T03:37:24;5.70;13.60
29093;DHT22;16167;48.768;14.984;2023-05-10T03:39:52;5.80;17.00
29093;DHT22;16167;48.768;14.984;2023-05-10T03:42:20;5.70;28.90
29093;DHT22;16167;48.768;14.984;2023-05-10T03:44:48;5.70;22.80
29093;DHT22;16167;48.768;14.984;2023-05-10T03:47:18;5.80;22.90
29093;DHT22;16167;48.768;14.984;2023-05-10T03:49:46;5.80;25.60
29093;DHT22;16167;48.768;14.984;2023-05-10T03:52:14;5.80;23.50
29093;DHT22;16167;48.768;14.984;2023-05-10T03:54:42;5.80;25.70
29093;DHT22;16167;48.768;14.984;2023-05-10T03:57:10;5.80;23.90
29093;DHT22;16167;48.768;14.984;2023-05-10T03:59:37;5.80;17.00
29093;DHT22;16167;48.768;14.984;2023-05-10T04:02:05;5.80;32.70
29093;DHT22;16167;48.768;14.984;2023-05-10T04:04:35;5.80;39.60
29093;DHT22;16167;48.768;14.984;2023-05-10T04:07:03;5.90;36.90
29093;DHT22;16167;48.768;14.984;2023-05-10T04:09:31;5.90;36.50
29093;DHT22;16167;48.768;14.984;2023-05-10T04:11:59;5.90;22.70
29093;DHT22;16167;48.768;14.984;2023-05-10T04:14:28;6.00;32.50
29093;DHT22;16167;48.768;14.984;2023-05-10T04:16:56;6.10;36.00
29093;DHT22;16167;48.768;14.984;2023-05-10T04:19:28;6.20;32.30
29093;DHT22;16167;48.768;14.984;2023-05-10T04:21:57;6.20;30.00
29093;DHT22;16167;48.768;14.984;2023-05-10T04:24:25;6.20;25.50
29093;DHT22;16167;48.768;14.984;2023-05-10T04:26:53;6.30;30.90
29093;DHT22;16167;48.768;14.984;2023-05-10T04:29:23;6.40;33.20
29093;DHT22;16167;48.768;14.984;2023-05-10T04:31:51;6.40;28.90
29093;DHT22;16167;48.768;14.984;2023-05-10T04:34:20;6.50;32.10
29093;DHT22;16167;48.768;14.984;2023-05-10T04:36:47;6.60;21.40
29093;DHT22;16167;48.768;14.984;2023-05-10T04:39:17;6.70;24.00
29093;DHT22;16167;48.768;14.984;2023-05-10T04:41:45;6.80;23.10
29093;DHT22;16167;48.768;14.984;2023-05-10T04:44:12;6.90;21.30
29093;DHT22;16167;48.768;14.984;2023-05-10T04:46:40;7.00;17.70
29093;DHT22;16167;48.768;14.984;2023-05-10T04:49:08;7.10;18.10
29093;DHT22;16167;48.768;14.984;2023-05-10T04:51:36;7.30;14.70
29093;DHT22;16167;48.768;14.984;2023-05-10T04:54:04;7.40;13.20
29093;DHT22;16167;48.768;14.984;2023-05-10T04:56:34;7.50;10.60
29093;DHT22;16167;48.768;14.984;2023-05-10T04:59:01;7.60;10.20
29093;DHT22;16167;48.768;14.984;2023-05-10T05:01:29;7.70;9.80
29093;DHT22;16167;48.768;14.984;2023-05-10T05:03:57;7.80;6.50
29093;DHT22;16167;48.768;14.984;2023-05-10T05:06:26;8.00;6.00
29093;DHT22;16167;48.768;14.984;2023-05-10T05:08:54;8.10;6.60
29093;DHT22;16167;48.768;14.984;2023-05-10T05:11:21;8.20;6.30
29093;DHT22;16167;48.768;14.984;2023-05-10T05:13:51;8.30;2.60
29093;DHT22;16167;48.768;14.984;2023-05-10T05:16:19;8.40;2.50
29093;DHT22;16167;48.768;14.984;2023-05-10T05:18:47;8.70;1.30
29093;DHT22;16167;48.768;14.984;2023-05-10T05:21:14;8.70;1.00
29093;DHT22;16167;48.768;14.984;2023-05-10T05:23:43;9.00;1.00
29093;DHT22;16167;48.768;14.984;2023-05-10T05:26:11;9.10;1.00
29093;DHT22;16167;48.768;14.984;2023-05-10T05:28:39;9.40;1.00
29093;DHT22;16167;48.768;14.984;2023-05-10T05:31:08;9.40;1.00
29093;DHT22;16167;48.768;14.984;2023-05-10T05:33:36;9.60;1.00
29093;DHT22;16167;48.768;14.984;2023-05-10T05:36:04;9.70;1.00
29093;DHT22;16167;48.768;14.984;2023-05-10T05:38:32;9.90;1.00
29093;DHT22;16167;48.768;14.984;2023-05-10T05:41:00;10.10;1.00
29093;DHT22;16167;48.768;14.984;2023-05-10T05:43:29;10.30;1.00
29093;DHT22;16167;48.768;14.984;2023-05-10T05:45:57;10.50;1.00
29093;DHT22;16167;48.768;14.984;2023-05-10T05:48:26;10.70;1.00
29093;DHT22;16167;48.768;14.984;2023-05-10T05:50:54;10.80;1.00
29093;DHT22;16167;48.768;14.984;2023-05-10T05:53:23;11.00;1.00
29093;DHT22;16167;48.768;14.984;2023-05-10T05:55:51;11.20;1.00
29093;DHT22;16167;48.768;14.984;2023-05-10T05:58:19;11.40;1.00
29093;DHT22;16167;48.768;14.984;2023-05-10T06:00:48;11.50;1.00
29093;DHT22;16167;48.768;14.984;2023-05-10T06:03:16;11.70;1.00
29093;DHT22;16167;48.768;14.984;2023-05-10T06:05:45;11.80;1.00
29093;DHT22;16167;48.768;14.984;2023-05-10T06:08:13;11.90;1.00
29093;DHT22;16167;48.768;14.984;2023-05-10T06:10:41;12.10;1.00
29093;DHT22;16167;48.768;14.984;2023-05-10T06:13:09;12.20;1.00
29093;DHT22;16167;48.768;14.984;2023-05-10T06:15:37;12.30;2.50
29093;DHT22;16167;48.768;14.984;2023-05-10T06:18:05;12.50;9.50
29093;DHT22;16167;48.768;14.984;2023-05-10T06:20:33;12.60;12.70
29093;DHT22;16167;48.768;14.984;2023-05-10T06:23:02;12.80;15.20
29093;DHT22;16167;48.768;14.984;2023-05-10T06:25:30;13.00;13.50
29093;DHT22;16167;48.768;14.984;2023-05-10T06:27:58;13.20;14.10
29093;DHT22;16167;48.768;14.984;2023-05-10T06:30:26;13.40;16.80
29093;DHT22;16167;48.768;14.984;2023-05-10T06:32:55;13.50;18.50
29093;DHT22;16167;48.768;14.984;2023-05-10T06:35:24;13.70;18.70
29093;DHT22;16167;48.768;14.984;2023-05-10T06:37:52;13.80;18.50
29093;DHT22;16167;48.768;14.984;2023-05-10T06:40:21;13.80;17.20
29093;DHT22;16167;48.768;14.984;2023-05-10T06:42:49;14.00;22.10
29093;DHT22;16167;48.768;14.984;2023-05-10T06:45:17;14.20;14.30
29093;DHT22;16167;48.768;14.984;2023-05-10T06:47:46;14.30;13.60
29093;DHT22;16167;48.768;14.984;2023-05-10T06:50:13;14.50;15.20
29093;DHT22;16167;48.768;14.984;2023-05-10T06:52:41;14.60;14.40
29093;DHT22;16167;48.768;14.984;2023-05-10T06:55:10;14.70;12.70
29093;DHT22;16167;48.768;14.984;2023-05-10T06:57:39;15.00;14.30
29093;DHT22;16167;48.768;14.984;2023-05-10T07:00:07;15.30;14.90
29093;DHT22;16167;48.768;14.984;2023-05-10T07:02:36;15.60;18.60
29093;DHT22;16167;48.768;14.984;2023-05-10T07:05:05;15.70;13.00
29093;DHT22;16167;48.768;14.984;2023-05-10T07:07:33;15.80;12.30
29093;DHT22;16167;48.768;14.984;2023-05-10T07:10:01;15.90;6.90
29093;DHT22;16167;48.768;14.984;2023-05-10T07:12:29;15.90;8.40
29093;DHT22;16167;48.768;14.984;2023-05-10T07:14:58;15.90;6.50
29093;DHT22;16167;48.768;14.984;2023-05-10T07:17:26;16.00;7.10
29093;DHT22;16167;48.768;14.984;2023-05-10T07:19:54;16.10;9.00
29093;DHT22;16167;48.768;14.984;2023-05-10T07:22:22;16.20;9.30
29093;DHT22;16167;48.768;14.984;2023-05-10T07:24:50;16.30;8.10
29093;DHT22;16167;48.768;14.984;2023-05-10T07:27:18;16.50;7.50
29093;DHT22;16167;48.768;14.984;2023-05-10T07:29:45;16.50;7.80
29093;DHT22;16167;48.768;14.984;2023-05-10T07:32:15;16.50;7.70
29093;DHT22;16167;48.768;14.984;2023-05-10T07:34:43;16.60;8.90
29093;DHT22;16167;48.768;14.984;2023-05-10T07:37:11;16.80;8.60
29093;DHT22;16167;48.768;14.984;2023-05-10T07:39:38;17.00;6.60
29093;DHT22;16167;48.768;14.984;2023-05-10T07:42:06;16.90;5.40
29093;DHT22;16167;48.768;14.984;2023-05-10T07:44:34;16.80;6.70
29093;DHT22;16167;48.768;14.984;2023-05-10T07:47:02;16.70;8.80
29093;DHT22;16167;48.768;14.984;2023-05-10T07:49:32;16.80;6.00
29093;DHT22;16167;48.768;14.984;2023-05-10T07:51:59;17.10;7.30
29093;DHT22;16167;48.768;14.984;2023-05-10T07:54:27;17.40;8.90
29093;DHT22;16167;48.768;14.984;2023-05-10T07:56:55;17.60;3.30
29093;DHT22;16167;48.768;14.984;2023-05-10T07:59:23;17.90;5.70
29093;DHT22;16167;48.768;14.984;2023-05-10T08:01:51;18.00;4.10
29093;DHT22;16167;48.768;14.984;2023-05-10T08:04:19;18.30;4.30
29093;DHT22;16167;48.768;14.984;2023-05-10T08:06:48;18.50;3.90
29093;DHT22;16167;48.768;14.984;2023-05-10T08:09:17;18.70;6.20
29093;DHT22;16167;48.768;14.984;2023-05-10T08:11:50;19.00;6.00
29093;DHT22;16167;48.768;14.984;2023-05-10T08:14:18;19.30;11.20
29093;DHT22;16167;48.768;14.984;2023-05-10T08:16:46;19.50;10.20
29093;DHT22;16167;48.768;14.984;2023-05-10T08:19:14;19.70;11.10
29093;DHT22;16167;48.768;14.984;2023-05-10T08:21:45;19.70;11.50
29093;DHT22;16167;48.768;14.984;2023-05-10T08:24:14;20.00;12.50
29093;DHT22;16167;48.768;14.984;2023-05-10T08:26:42;20.10;12.60
29093;DHT22;16167;48.768;14.984;2023-05-10T08:29:10;20.20;7.20
29093;DHT22;16167;48.768;14.984;2023-05-10T08:31:38;20.30;7.60
29093;DHT22;16167;48.768;14.984;2023-05-10T08:34:06;20.40;6.00
29093;DHT22;16167;48.768;14.984;2023-05-10T08:36:34;20.60;6.30
29093;DHT22;16167;48.768;14.984;2023-05-10T08:39:03;20.70;7.30
29093;DHT22;16167;48.768;14.984;2023-05-10T08:41:38;20.90;7.50
29093;DHT22;16167;48.768;14.984;2023-05-10T08:44:07;20.90;6.60
29093;DHT22;16167;48.768;14.984;2023-05-10T08:46:35;21.10;7.80
29093;DHT22;16167;48.768;14.984;2023-05-10T08:49:06;21.20;8.30
29093;DHT22;16167;48.768;14.984;2023-05-10T08:51:35;21.30;7.40
29093;DHT22;16167;48.768;14.984;2023-05-10T08:54:04;21.40;7.90
29093;DHT22;16167;48.768;14.984;2023-05-10T08:56:32;21.40;8.80
29093;DHT22;16167;48.768;14.984;2023-05-10T08:59:01;21.50;9.60
29093;DHT22;16167;48.768;14.984;2023-05-10T09:01:29;21.70;9.30
29093;DHT22;16167;48.768;14.984;2023-05-10T09:03:58;22.00;10.60
29093;DHT22;16167;48.768;14.984;2023-05-10T09:06:26;22.20;11.30
29093;DHT22;16167;48.768;14.984;2023-05-10T09:08:55;22.50;12.40
29093;DHT22;16167;48.768;14.984;2023-05-10T09:11:23;22.40;7.90
29093;DHT22;16167;48.768;14.984;2023-05-10T09:13:51;22.40;9.40
29093;DHT22;16167;48.768;14.984;2023-05-10T09:16:21;21.90;10.50
29093;DHT22;16167;48.768;14.984;2023-05-10T09:18:49;21.80;11.80
29093;DHT22;16167;48.768;14.984;2023-05-10T09:21:18;21.60;11.40
29093;DHT22;16167;48.768;14.984;2023-05-10T09:23:47;21.30;10.80
29093;DHT22;16167;48.768;14.984;2023-05-10T09:26:16;21.20;9.70
29093;DHT22;16167;48.768;14.984;2023-05-10T09:28:51;21.00;13.00
29093;DHT22;16167;48.768;14.984;2023-05-10T09:31:21;20.90;9.00
29093;DHT22;16167;48.768;14.984;2023-05-10T09:33:49;20.70;10.20
29093;DHT22;16167;48.768;14.984;2023-05-10T09:36:17;20.70;10.10
29093;DHT22;16167;48.768;14.984;2023-05-10T09:38:45;21.00;10.30
29093;DHT22;16167;48.768;14.984;2023-05-10T09:41:17;21.20;10.70
29093;DHT22;16167;48.768;14.984;2023-05-10T09:43:46;21.40;10.10
29093;DHT22;16167;48.768;14.984;2023-05-10T09:46:14;21.50;9.50
29093;DHT22;16167;48.768;14.984;2023-05-10T09:48:44;21.50;9.80
29093;DHT22;16167;48.768;14.984;2023-05-10T09:51:18;21.90;10.70
29093;DHT22;16167;48.768;14.984;2023-05-10T09:53:46;22.00;9.20
29093;DHT22;16167;48.768;14.984;2023-05-10T09:56:18;21.80;8.10
29093;DHT22;16167;48.768;14.984;2023-05-10T09:59:03;21.50;10.20
29093;DHT22;16167;48.768;14.984;2023-05-10T10:01:31;21.30;10.70
29093;DHT22;16167;48.768;14.984;2023-05-10T10:04:00;21.10;10.10
29093;DHT22;16167;48.768;14.984;2023-05-10T10:06:34;20.80;10.10
29093;DHT22;16167;48.768;14.984;2023-05-10T10:09:02;20.70;11.40
29093;DHT22;16167;48.768;14.984;2023-05-10T10:11:30;20.60;10.80
29093;DHT22;16167;48.768;14.984;2023-05-10T10:13:59;20.70;11.60
29093;DHT22;16167;48.768;14.984;2023-05-10T10:16:27;20.80;10.00
29093;DHT22;16167;48.768;14.984;2023-05-10T10:18:56;21.10;10.00
29093;DHT22;16167;48.768;14.984;2023-05-10T10:21:26;21.00;10.30
29093;DHT22;16167;48.768;14.984;2023-05-10T10:23:54;21.00;11.30
29093;DHT22;16167;48.768;14.984;2023-05-10T10:26:22;21.00;9.90
29093;DHT22;16167;48.768;14.984;2023-05-10T10:28:54;21.00;10.30
29093;DHT22;16167;48.768;14.984;2023-05-10T10:31:26;21.30;11.40
29093;DHT22;16167;48.768;14.984;2023-05-10T10:33:56;21.30;9.80
29093;DHT22;16167;48.768;14.984;2023-05-10T10:36:28;21.20;9.90
29093;DHT22;16167;48.768;14.984;2023-05-10T10:39:00;21.20;8.50
29093;DHT22;16167;48.768;14.984;2023-05-10T10:41:29;21.00;9.30
29093;DHT22;16167;48.768;14.984;2023-05-10T10:47:01;21.30;12.50
29093;DHT22;16167;48.768;14.984;2023-05-10T10:49:30;21.20;7.30
29093;DHT22;16167;48.768;14.984;2023-05-10T10:54:51;20.80;10.70
29093;DHT22;16167;48.768;14.984;2023-05-10T10:57:19;20.50;8.30
29093;DHT22;16167;48.768;14.984;2023-05-10T10:59:48;20.20;7.70
29093;DHT22;16167;48.768;14.984;2023-05-10T11:02:42;19.90;9.60
29093;DHT22;16167;48.768;14.984;2023-05-10T11:05:25;19.70;9.90
29093;DHT22;16167;48.768;14.984;2023-05-10T11:07:53;19.70;8.30
29093;DHT22;16167;48.768;14.984;2023-05-10T11:10:23;20.00;9.40
29093;DHT22;16167;48.768;14.984;2023-05-10T11:12:52;20.30;8.40
29093;DHT22;16167;48.768;14.984;2023-05-10T11:15:28;20.20;5.90
29093;DHT22;16167;48.768;14.984;2023-05-10T11:17:56;20.00;9.00
29093;DHT22;16167;48.768;14.984;2023-05-10T11:20:24;19.70;10.60
29093;DHT22;16167;48.768;14.984;2023-05-10T11:23:10;19.50;11.00
29093;DHT22;16167;48.768;14.984;2023-05-10T11:25:42;19.40;8.40
29093;DHT22;16167;48.768;14.984;2023-05-10T11:28:11;19.30;8.10
29093;DHT22;16167;48.768;14.984;2023-05-10T11:30:39;19.20;9.30
29093;DHT22;16167;48.768;14.984;2023-05-10T11:33:07;19.00;8.30
29093;DHT22;16167;48.768;14.984;2023-05-10T11:35:39;18.90;8.10
29093;DHT22;16167;48.768;14.984;2023-05-10T11:38:09;18.80;9.30
29093;DHT22;16167;48.768;14.984;2023-05-10T11:40:38;18.60;9.60
29093;DHT22;16167;48.768;14.984;2023-05-10T11:43:08;18.50;9.50
29093;DHT22;16167;48.768;14.984;2023-05-10T11:45:36;18.40;8.50
29093;DHT22;16167;48.768;14.984;2023-05-10T11:48:04;18.30;9.90
29093;DHT22;16167;48.768;14.984;2023-05-10T11:50:32;18.30;9.90
29093;DHT22;16167;48.768;14.984;2023-05-10T11:53:00;18.20;11.20
29093;DHT22;16167;48.768;14.984;2023-05-10T11:55:28;18.00;11.10
29093;DHT22;16167;48.768;14.984;2023-05-10T11:57:59;18.00;10.70
29093;DHT22;16167;48.768;14.984;2023-05-10T12:00:29;18.00;11.00
29093;DHT22;16167;48.768;14.984;2023-05-10T12:02:57;18.00;11.50
29093;DHT22;16167;48.768;14.984;2023-05-10T12:05:26;18.00;10.40
29093;DHT22;16167;48.768;14.984;2023-05-10T12:10:36;17.90;11.10
29093;DHT22;16167;48.768;14.984;2023-05-10T12:13:04;17.90;10.50
29093;DHT22;16167;48.768;14.984;2023-05-10T12:15:34;17.90;10.70
29093;DHT22;16167;48.768;14.984;2023-05-10T12:18:02;18.00;11.10
29093;DHT22;16167;48.768;14.984;2023-05-10T12:20:31;18.00;13.30
29093;DHT22;16167;48.768;14.984;2023-05-10T12:22:59;17.90;12.20
29093;DHT22;16167;48.768;14.984;2023-05-10T12:25:29;17.90;12.40
29093;DHT22;16167;48.768;14.984;2023-05-10T12:27:58;17.80;12.90
29093;DHT22;16167;48.768;14.984;2023-05-10T12:30:27;17.90;13.10
29093;DHT22;16167;48.768;14.984;2023-05-10T12:33:00;17.90;12.70
29093;DHT22;16167;48.768;14.984;2023-05-10T12:35:30;17.80;13.10
29093;DHT22;16167;48.768;14.984;2023-05-10T12:37:58;17.80;15.50
29093;DHT22;16167;48.768;14.984;2023-05-10T12:40:26;17.80;15.90
29093;DHT22;16167;48.768;14.984;2023-05-10T12:42:54;17.60;12.20
29093;DHT22;16167;48.768;14.984;2023-05-10T12:45:22;17.50;13.00
29093;DHT22;16167;48.768;14.984;2023-05-10T12:47:50;17.40;13.10
29093;DHT22;16167;48.768;14.984;2023-05-10T12:50:19;17.50;13.20
29093;DHT22;16167;48.768;14.984;2023-05-10T12:52:47;17.40;12.70
29093;DHT22;16167;48.768;14.984;2023-05-10T12:55:15;17.30;13.50
29093;DHT22;16167;48.768;14.984;2023-05-10T12:57:43;17.20;13.00
29093;DHT22;16167;48.768;14.984;2023-05-10T13:00:11;17.10;13.30
29093;DHT22;16167;48.768;14.984;2023-05-10T13:02:39;17.00;14.30
29093;DHT22;16167;48.768;14.984;2023-05-10T13:05:07;17.00;16.90
29093;DHT22;16167;48.768;14.984;2023-05-10T13:07:37;16.90;15.40
29093;DHT22;16167;48.768;14.984;2023-05-10T13:10:05;16.70;14.80
29093;DHT22;16167;48.768;14.984;2023-05-10T13:12:33;16.60;15.20
29093;DHT22;16167;48.768;14.984;2023-05-10T13:15:02;16.40;14.50
29093;DHT22;16167;48.768;14.984;2023-05-10T13:17:29;16.40;17.10
29093;DHT22;16167;48.768;14.984;2023-05-10T13:19:59;16.20;14.60
29093;DHT22;16167;48.768;14.984;2023-05-10T13:22:27;16.10;8.80
29093;DHT22;16167;48.768;14.984;2023-05-10T13:25:07;16.20;4.20
29093;DHT22;16167;48.768;14.984;2023-05-10T13:27:36;16.10;5.40
29093;DHT22;16167;48.768;14.984;2023-05-10T13:30:04;16.00;1.00
29093;DHT22;16167;48.768;14.984;2023-05-10T13:32:32;15.90;1.00
29093;DHT22;16167;48.768;14.984;2023-05-10T13:35:00;15.90;1.00
29093;DHT22;16167;48.768;14.984;2023-05-10T13:37:29;15.90;1.30
29093;DHT22;16167;48.768;14.984;2023-05-10T13:39:58;15.80;1.30
29093;DHT22;16167;48.768;14.984;2023-05-10T13:42:27;15.80;1.00
29093;DHT22;16167;48.768;14.984;2023-05-10T13:44:55;15.80;1.00
29093;DHT22;16167;48.768;14.984;2023-05-10T13:47:23;15.70;1.00
29093;DHT22;16167;48.768;14.984;2023-05-10T13:49:51;15.70;1.60
29093;DHT22;16167;48.768;14.984;2023-05-10T13:52:18;15.70;1.00
29093;DHT22;16167;48.768;14.984;2023-05-10T13:54:46;15.70;1.00
29093;DHT22;16167;48.768;14.984;2023-05-10T13:57:14;15.80;1.00
29093;DHT22;16167;48.768;14.984;2023-05-10T13:59:44;15.80;1.00
29093;DHT22;16167;48.768;14.984;2023-05-10T14:02:12;15.80;1.00
29093;DHT22;16167;48.768;14.984;2023-05-10T14:04:40;15.80;1.10
29093;DHT22;16167;48.768;14.984;2023-05-10T14:07:08;15.90;1.00
29093;DHT22;16167;48.768;14.984;2023-05-10T14:09:36;15.80;1.30
29093;DHT22;16167;48.768;14.984;2023-05-10T14:12:04;15.80;1.00
29093;DHT22;16167;48.768;14.984;2023-05-10T14:14:32;15.70;1.00
29093;DHT22;16167;48.768;14.984;2023-05-10T14:17:01;15.70;1.00
29093;DHT22;16167;48.768;14.984;2023-05-10T14:19:29;15.70;1.00
29093;DHT22;16167;48.768;14.984;2023-05-10T14:21:59;15.60;1.00
29093;DHT22;16167;48.768;14.984;2023-05-10T14:24:27;15.60;1.00
29093;DHT22;16167;48.768;14.984;2023-05-10T14:26:54;15.60;1.00
29093;DHT22;16167;48.768;14.984;2023-05-10T14:29:22;15.50;1.00
29093;DHT22;16167;48.768;14.984;2023-05-10T14:31:50;15.50;1.00
29093;DHT22;16167;48.768;14.984;2023-05-10T14:34:20;15.50;1.00
29093;DHT22;16167;48.768;14.984;2023-05-10T14:36:48;15.40;1.00
29093;DHT22;16167;48.768;14.984;2023-05-10T14:39:16;15.50;1.00
29093;DHT22;16167;48.768;14.984;2023-05-10T14:41:44;15.60;1.00
29093;DHT22;16167;48.768;14.984;2023-05-10T14:44:13;15.60;1.00
29093;DHT22;16167;48.768;14.984;2023-05-10T14:46:41;15.50;1.00
29093;DHT22;16167;48.768;14.984;2023-05-10T14:49:09;15.50;1.00
29093;DHT22;16167;48.768;14.984;2023-05-10T14:51:38;15.50;1.00
29093;DHT22;16167;48.768;14.984;2023-05-10T14:54:06;15.50;1.00
29093;DHT22;16167;48.768;14.984;2023-05-10T14:56:34;15.50;1.00
29093;DHT22;16167;48.768;14.984;2023-05-10T14:59:03;15.50;1.00
29093;DHT22;16167;48.768;14.984;2023-05-10T15:01:32;15.50;1.00
29093;DHT22;16167;48.768;14.984;2023-05-10T15:04:02;15.50;1.00
29093;DHT22;16167;48.768;14.984;2023-05-10T15:06:31;15.50;1.00
29093;DHT22;16167;48.768;14.984;2023-05-10T15:09:00;15.50;1.00
29093;DHT22;16167;48.768;14.984;2023-05-10T15:11:28;15.50;1.00
29093;DHT22;16167;48.768;14.984;2023-05-10T15:13:56;15.50;1.00
29093;DHT22;16167;48.768;14.984;2023-05-10T15:16:24;15.40;1.00
29093;DHT22;16167;48.768;14.984;2023-05-10T15:18:53;15.30;1.00
29093;DHT22;16167;48.768;14.984;2023-05-10T15:21:21;15.30;1.00
29093;DHT22;16167;48.768;14.984;2023-05-10T15:23:49;15.20;1.00
29093;DHT22;16167;48.768;14.984;2023-05-10T15:26:18;15.20;1.00
29093;DHT22;16167;48.768;14.984;2023-05-10T15:28:46;15.10;1.00
29093;DHT22;16167;48.768;14.984;2023-05-10T15:31:14;15.00;1.00
29093;DHT22;16167;48.768;14.984;2023-05-10T15:33:42;15.00;1.00
29093;DHT22;16167;48.768;14.984;2023-05-10T15:36:10;15.10;1.00
29093;DHT22;16167;48.768;14.984;2023-05-10T15:38:37;15.20;1.00
29093;DHT22;16167;48.768;14.984;2023-05-10T15:41:05;15.20;1.00
29093;DHT22;16167;48.768;14.984;2023-05-10T15:43:35;15.40;1.00
29093;DHT22;16167;48.768;14.984;2023-05-10T15:46:03;15.30;1.00
29093;DHT22;16167;48.768;14.984;2023-05-10T15:48:32;15.20;1.00
29093;DHT22;16167;48.768;14.984;2023-05-10T15:51:00;15.10;1.00